sensor_id;sensor_type;location;lat;lon;timestamp;temperature;humidity
56436;DHT22;42335;44.872;20.658;2023-02-18T00:01:20;179.60;2252.80
56436;DHT22;42335;44.872;20.658;2023-02-18T00:03:46;179.70;2252.80
56436;DHT22;42335;44.872;20.658;2023-02-18T00:06:27;179.70;2252.80
56436;DHT22;42335;44.872;20.658;2023-02-18T00:08:53;179.70;2252.80
56436;DHT22;42335;44.872;20.658;2023-02-18T00:11:20;179.80;2252.80
56436;DHT22;42335;44.872;20.658;2023-02-18T00:13:53;179.80;2252.80
56436;DHT22;42335;44.872;20.658;2023-02-18T00:16:20;179.70;2252.80
56436;DHT22;42335;44.872;20.658;2023-02-18T00:18:46;179.70;2252.80
56436;DHT22;42335;44.872;20.658;2023-02-18T00:21:12;179.70;2252.80
56436;DHT22;42335;44.872;20.658;2023-02-18T00:23:38;179.70;2252.80
56436;DHT22;42335;44.872;20.658;2023-02-18T00:26:07;179.70;2252.80
56436;DHT22;42335;44.872;20.658;2023-02-18T00:28:33;179.70;2252.80
56436;DHT22;42335;44.872;20.658;2023-02-18T00:31:04;179.80;2252.80
56436;DHT22;42335;44.872;20.658;2023-02-18T00:33:30;179.90;2252.80
56436;DHT22;42335;44.872;20.658;2023-02-18T00:36:01;179.90;2252.80
56436;DHT22;42335;44.872;20.658;2023-02-18T00:38:27;179.90;2252.80
56436;DHT22;42335;44.872;20.658;2023-02-18T00:40:52;180.00;2252.80
56436;DHT22;42335;44.872;20.658;2023-02-18T00:43:18;180.00;2252.80
56436;DHT22;42335;44.872;20.658;2023-02-18T00:45:44;180.00;2252.80
56436;DHT22;42335;44.872;20.658;2023-02-18T00:48:10;180.00;2252.80
56436;DHT22;42335;44.872;20.658;2023-02-18T00:50:36;180.00;2252.80
56436;DHT22;42335;44.872;20.658;2023-02-18T00:53:02;180.10;2252.80
56436;DHT22;42335;44.872;20.658;2023-02-18T00:55:27;180.10;2252.80
56436;DHT22;42335;44.872;20.658;2023-02-18T00:57:53;180.10;2252.80
56436;DHT22;42335;44.872;20.658;2023-02-18T01:00:19;180.00;2252.80
56436;DHT22;42335;44.872;20.658;2023-02-18T01:02:45;180.10;2252.80
56436;DHT22;42335;44.872;20.658;2023-02-18T01:05:10;180.10;2252.80
56436;DHT22;42335;44.872;20.658;2023-02-18T01:07:36;204.80;2252.80
56436;DHT22;42335;44.872;20.658;2023-02-18T01:10:03;180.10;2252.80
56436;DHT22;42335;44.872;20.658;2023-02-18T01:12:29;180.00;2252.80
56436;DHT22;42335;44.872;20.658;2023-02-18T01:14:54;179.90;2252.80
56436;DHT22;42335;44.872;20.658;2023-02-18T01:17:20;180.10;2252.80
56436;DHT22;42335;44.872;20.658;2023-02-18T01:19:45;180.00;2252.80
56436;DHT22;42335;44.872;20.658;2023-02-18T01:22:11;179.90;2252.80
56436;DHT22;42335;44.872;20.658;2023-02-18T01:24:37;180.00;2252.80
56436;DHT22;42335;44.872;20.658;2023-02-18T01:27:04;179.90;2252.80
56436;DHT22;42335;44.872;20.658;2023-02-18T01:29:29;180.10;2252.80
56436;DHT22;42335;44.872;20.658;2023-02-18T01:31:55;180.10;2252.80
56436;DHT22;42335;44.872;20.658;2023-02-18T01:34:21;180.10;2252.80
56436;DHT22;42335;44.872;20.658;2023-02-18T01:36:46;204.80;2252.80
56436;DHT22;42335;44.872;20.658;2023-02-18T01:39:13;180.10;2252.80
56436;DHT22;42335;44.872;20.658;2023-02-18T01:41:40;204.80;2252.80
56436;DHT22;42335;44.872;20.658;2023-02-18T01:44:20;204.80;2252.80
56436;DHT22;42335;44.872;20.658;2023-02-18T01:46:46;204.90;2252.80
56436;DHT22;42335;44.872;20.658;2023-02-18T01:49:26;204.90;2252.80
56436;DHT22;42335;44.872;20.658;2023-02-18T01:51:56;204.90;2252.80
56436;DHT22;42335;44.872;20.658;2023-02-18T01:54:33;180.10;2252.80
56436;DHT22;42335;44.872;20.658;2023-02-18T01:57:11;180.10;2252.80
56436;DHT22;42335;44.872;20.658;2023-02-18T02:00:06;204.90;2252.80
56436;DHT22;42335;44.872;20.658;2023-02-18T02:02:34;204.90;2252.80
56436;DHT22;42335;44.872;20.658;2023-02-18T02:05:02;205.00;2252.80
56436;DHT22;42335;44.872;20.658;2023-02-18T02:07:29;205.00;2252.80
56436;DHT22;42335;44.872;20.658;2023-02-18T02:09:56;205.00;2252.80
56436;DHT22;42335;44.872;20.658;2023-02-18T02:15:52;204.90;2252.80
56436;DHT22;42335;44.872;20.658;2023-02-18T02:18:31;204.90;2252.80
56436;DHT22;42335;44.872;20.658;2023-02-18T02:35:08;204.90;2252.80
56436;DHT22;42335;44.872;20.658;2023-02-18T02:43:33;205.00;2252.80
56436;DHT22;42335;44.872;20.658;2023-02-18T02:46:11;205.10;2252.80
56436;DHT22;42335;44.872;20.658;2023-02-18T02:48:45;205.10;2252.80
56436;DHT22;42335;44.872;20.658;2023-02-18T02:54:16;205.10;2252.80
56436;DHT22;42335;44.872;20.658;2023-02-18T02:56:42;205.10;2252.80
56436;DHT22;42335;44.872;20.658;2023-02-18T02:59:12;205.10;2252.80
56436;DHT22;42335;44.872;20.658;2023-02-18T03:01:57;205.00;2252.80
56436;DHT22;42335;44.872;20.658;2023-02-18T03:04:49;205.00;2252.80
56436;DHT22;42335;44.872;20.658;2023-02-18T03:15:23;205.00;2252.80
56436;DHT22;42335;44.872;20.658;2023-02-18T03:17:58;204.90;2252.80
56436;DHT22;42335;44.872;20.658;2023-02-18T03:20:33;180.10;2252.80
56436;DHT22;42335;44.872;20.658;2023-02-18T03:23:03;180.10;2252.80
56436;DHT22;42335;44.872;20.658;2023-02-18T03:25:31;180.10;2252.80
56436;DHT22;42335;44.872;20.658;2023-02-18T03:28:04;204.80;2252.80
56436;DHT22;42335;44.872;20.658;2023-02-18T03:30:34;204.80;2252.80
56436;DHT22;42335;44.872;20.658;2023-02-18T03:33:04;204.80;2252.80
56436;DHT22;42335;44.872;20.658;2023-02-18T03:35:30;204.80;2252.80
56436;DHT22;42335;44.872;20.658;2023-02-18T03:38:01;204.80;2252.80
56436;DHT22;42335;44.872;20.658;2023-02-18T03:40:30;204.90;2252.80
56436;DHT22;42335;44.872;20.658;2023-02-18T03:42:57;204.80;2252.80
56436;DHT22;42335;44.872;20.658;2023-02-18T03:45:24;204.80;2252.80
56436;DHT22;42335;44.872;20.658;2023-02-18T03:47:49;180.10;2252.80
56436;DHT22;42335;44.872;20.658;2023-02-18T03:50:15;180.00;2252.80
56436;DHT22;42335;44.872;20.658;2023-02-18T03:52:41;180.00;2252.80
56436;DHT22;42335;44.872;20.658;2023-02-18T03:55:07;180.00;2252.80
56436;DHT22;42335;44.872;20.658;2023-02-18T03:57:33;180.10;2252.80
56436;DHT22;42335;44.872;20.658;2023-02-18T03:59:59;180.10;2252.80
56436;DHT22;42335;44.872;20.658;2023-02-18T04:02:25;180.10;2252.80
56436;DHT22;42335;44.872;20.658;2023-02-18T04:04:51;180.10;2252.80
56436;DHT22;42335;44.872;20.658;2023-02-18T04:07:16;180.10;2252.80
56436;DHT22;42335;44.872;20.658;2023-02-18T04:09:42;180.10;2252.80
56436;DHT22;42335;44.872;20.658;2023-02-18T04:12:08;180.10;2252.80
56436;DHT22;42335;44.872;20.658;2023-02-18T04:14:33;180.10;2252.80
56436;DHT22;42335;44.872;20.658;2023-02-18T04:16:59;180.10;2252.80
56436;DHT22;42335;44.872;20.658;2023-02-18T04:19:25;180.00;2252.80
56436;DHT22;42335;44.872;20.658;2023-02-18T04:21:51;180.10;2252.80
56436;DHT22;42335;44.872;20.658;2023-02-18T04:24:17;180.00;2252.80
56436;DHT22;42335;44.872;20.658;2023-02-18T04:26:42;180.00;2252.80
56436;DHT22;42335;44.872;20.658;2023-02-18T04:29:10;180.00;2252.80
56436;DHT22;42335;44.872;20.658;2023-02-18T04:31:38;180.00;2252.80
56436;DHT22;42335;44.872;20.658;2023-02-18T04:34:04;180.00;2252.80
56436;DHT22;42335;44.872;20.658;2023-02-18T04:36:30;179.90;2252.80
56436;DHT22;42335;44.872;20.658;2023-02-18T04:38:56;180.00;2252.80
56436;DHT22;42335;44.872;20.658;2023-02-18T04:41:21;180.00;2252.80
56436;DHT22;42335;44.872;20.658;2023-02-18T04:43:47;180.00;2252.80
56436;DHT22;42335;44.872;20.658;2023-02-18T04:46:13;180.00;2252.80
56436;DHT22;42335;44.872;20.658;2023-02-18T04:48:39;180.00;2252.80
56436;DHT22;42335;44.872;20.658;2023-02-18T04:51:05;180.00;2252.80
56436;DHT22;42335;44.872;20.658;2023-02-18T04:53:30;179.80;2252.80
56436;DHT22;42335;44.872;20.658;2023-02-18T04:55:56;179.80;2252.80
56436;DHT22;42335;44.872;20.658;2023-02-18T04:58:22;179.80;2252.80
56436;DHT22;42335;44.872;20.658;2023-02-18T05:00:48;179.90;2252.80
56436;DHT22;42335;44.872;20.658;2023-02-18T05:03:13;179.90;2252.80
56436;DHT22;42335;44.872;20.658;2023-02-18T05:05:40;179.90;2252.80
56436;DHT22;42335;44.872;20.658;2023-02-18T05:08:07;179.90;2252.80
56436;DHT22;42335;44.872;20.658;2023-02-18T05:10:36;180.10;2252.80
56436;DHT22;42335;44.872;20.658;2023-02-18T05:13:01;179.80;2252.80
56436;DHT22;42335;44.872;20.658;2023-02-18T05:15:27;179.70;2252.80
56436;DHT22;42335;44.872;20.658;2023-02-18T05:17:52;179.70;2252.80
56436;DHT22;42335;44.872;20.658;2023-02-18T05:20:18;179.60;2252.80
56436;DHT22;42335;44.872;20.658;2023-02-18T05:22:44;179.60;2252.80
56436;DHT22;42335;44.872;20.658;2023-02-18T05:25:09;179.70;2252.80
56436;DHT22;42335;44.872;20.658;2023-02-18T05:27:35;180.00;2252.80
56436;DHT22;42335;44.872;20.658;2023-02-18T05:30:01;180.10;2252.80
56436;DHT22;42335;44.872;20.658;2023-02-18T05:32:26;204.90;2252.80
56436;DHT22;42335;44.872;20.658;2023-02-18T05:34:55;205.10;2252.80
56436;DHT22;42335;44.872;20.658;2023-02-18T05:37:20;205.20;2252.80
56436;DHT22;42335;44.872;20.658;2023-02-18T05:39:46;205.30;2252.80
56436;DHT22;42335;44.872;20.658;2023-02-18T05:42:12;205.50;2252.80
56436;DHT22;42335;44.872;20.658;2023-02-18T05:44:37;205.60;2252.80
56436;DHT22;42335;44.872;20.658;2023-02-18T05:47:06;205.70;2252.80
56436;DHT22;42335;44.872;20.658;2023-02-18T05:49:33;230.40;2252.80
56436;DHT22;42335;44.872;20.658;2023-02-18T05:51:59;230.50;2252.80
56436;DHT22;42335;44.872;20.658;2023-02-18T05:54:25;230.70;2252.80
56436;DHT22;42335;44.872;20.658;2023-02-18T05:56:52;230.80;2252.80
56436;DHT22;42335;44.872;20.658;2023-02-18T05:59:18;230.90;2252.80
56436;DHT22;42335;44.872;20.658;2023-02-18T06:01:46;231.00;2252.80
56436;DHT22;42335;44.872;20.658;2023-02-18T06:04:12;231.10;2227.20
56436;DHT22;42335;44.872;20.658;2023-02-18T06:06:38;231.10;2227.20
56436;DHT22;42335;44.872;20.658;2023-02-18T06:09:04;231.20;2176.00
56436;DHT22;42335;44.872;20.658;2023-02-18T06:11:30;231.30;2176.00
56436;DHT22;42335;44.872;20.658;2023-02-18T06:13:56;231.30;2150.40
56436;DHT22;42335;44.872;20.658;2023-02-18T06:16:22;256.00;2150.40
56436;DHT22;42335;44.872;20.658;2023-02-18T06:18:48;256.10;2124.80
56436;DHT22;42335;44.872;20.658;2023-02-18T06:21:14;256.10;2099.20
56436;DHT22;42335;44.872;20.658;2023-02-18T06:23:39;256.10;2099.20
56436;DHT22;42335;44.872;20.658;2023-02-18T06:26:05;256.20;2099.20
56436;DHT22;42335;44.872;20.658;2023-02-18T06:28:31;256.20;2073.60
56436;DHT22;42335;44.872;20.658;2023-02-18T06:30:56;256.30;2073.60
56436;DHT22;42335;44.872;20.658;2023-02-18T06:33:22;256.40;2048.00
56436;DHT22;42335;44.872;20.658;2023-02-18T06:35:56;256.50;2048.00
56436;DHT22;42335;44.872;20.658;2023-02-18T06:38:22;256.60;2022.40
56436;DHT22;42335;44.872;20.658;2023-02-18T06:40:47;256.70;1996.80
56436;DHT22;42335;44.872;20.658;2023-02-18T06:43:13;256.80;1996.80
56436;DHT22;42335;44.872;20.658;2023-02-18T06:45:39;256.90;1996.80
56436;DHT22;42335;44.872;20.658;2023-02-18T06:48:05;281.60;1996.80
56436;DHT22;42335;44.872;20.658;2023-02-18T06:50:30;281.70;1971.20
56436;DHT22;42335;44.872;20.658;2023-02-18T06:52:56;281.80;1945.60
56436;DHT22;42335;44.872;20.658;2023-02-18T06:55:24;281.90;1945.60
56436;DHT22;42335;44.872;20.658;2023-02-18T06:57:49;282.00;1920.00
56436;DHT22;42335;44.872;20.658;2023-02-18T07:00:15;282.00;1945.60
56436;DHT22;42335;44.872;20.658;2023-02-18T07:02:41;282.20;1920.00
56436;DHT22;42335;44.872;20.658;2023-02-18T07:05:07;282.20;1971.20
56436;DHT22;42335;44.872;20.658;2023-02-18T07:07:33;282.20;1971.20
56436;DHT22;42335;44.872;20.658;2023-02-18T07:10:00;282.30;1920.00
56436;DHT22;42335;44.872;20.658;2023-02-18T07:12:26;282.30;1920.00
56436;DHT22;42335;44.872;20.658;2023-02-18T07:14:52;282.40;1894.40
56436;DHT22;42335;44.872;20.658;2023-02-18T07:17:18;282.50;1868.80
56436;DHT22;42335;44.872;20.658;2023-02-18T07:19:43;307.20;1894.40
56436;DHT22;42335;44.872;20.658;2023-02-18T07:22:09;307.20;1894.40
56436;DHT22;42335;44.872;20.658;2023-02-18T07:24:35;307.30;1868.80
56436;DHT22;42335;44.872;20.658;2023-02-18T07:27:01;307.40;1868.80
56436;DHT22;42335;44.872;20.658;2023-02-18T07:29:27;307.50;1868.80
56436;DHT22;42335;44.872;20.658;2023-02-18T07:31:53;307.70;1843.20
56436;DHT22;42335;44.872;20.658;2023-02-18T07:34:19;307.90;1817.60
56436;DHT22;42335;44.872;20.658;2023-02-18T07:36:46;308.00;1792.00
56436;DHT22;42335;44.872;20.658;2023-02-18T07:39:12;332.80;1817.60
56436;DHT22;42335;44.872;20.658;2023-02-18T07:41:38;308.10;1792.00
56436;DHT22;42335;44.872;20.658;2023-02-18T07:44:04;332.80;1792.00
56436;DHT22;42335;44.872;20.658;2023-02-18T07:46:30;332.80;1792.00
56436;DHT22;42335;44.872;20.658;2023-02-18T07:48:56;332.80;1792.00
56436;DHT22;42335;44.872;20.658;2023-02-18T07:51:22;332.90;1766.40
56436;DHT22;42335;44.872;20.658;2023-02-18T07:53:48;333.10;1766.40
56436;DHT22;42335;44.872;20.658;2023-02-18T07:56:14;333.10;1766.40
56436;DHT22;42335;44.872;20.658;2023-02-18T07:58:40;333.50;1740.80
56436;DHT22;42335;44.872;20.658;2023-02-18T08:01:09;333.50;1740.80
56436;DHT22;42335;44.872;20.658;2023-02-18T08:03:36;333.40;1740.80
56436;DHT22;42335;44.872;20.658;2023-02-18T08:06:03;333.70;1740.80
56436;DHT22;42335;44.872;20.658;2023-02-18T08:08:30;333.70;1715.20
56436;DHT22;42335;44.872;20.658;2023-02-18T08:10:59;358.60;1715.20
56436;DHT22;42335;44.872;20.658;2023-02-18T08:13:27;358.50;1689.60
56436;DHT22;42335;44.872;20.658;2023-02-18T08:15:55;358.50;1689.60
56436;DHT22;42335;44.872;20.658;2023-02-18T08:18:22;358.60;1689.60
56436;DHT22;42335;44.872;20.658;2023-02-18T08:20:49;358.60;1689.60
56436;DHT22;42335;44.872;20.658;2023-02-18T08:23:18;358.70;1689.60
56436;DHT22;42335;44.872;20.658;2023-02-18T08:25:45;359.10;1664.00
56436;DHT22;42335;44.872;20.658;2023-02-18T08:28:11;359.00;1664.00
56436;DHT22;42335;44.872;20.658;2023-02-18T08:30:38;358.90;1664.00
56436;DHT22;42335;44.872;20.658;2023-02-18T08:33:03;358.80;1664.00
56436;DHT22;42335;44.872;20.658;2023-02-18T08:35:29;358.70;1689.60
56436;DHT22;42335;44.872;20.658;2023-02-18T08:37:56;358.50;1689.60
56436;DHT22;42335;44.872;20.658;2023-02-18T08:40:22;358.50;1689.60
56436;DHT22;42335;44.872;20.658;2023-02-18T08:42:48;358.50;1715.20
56436;DHT22;42335;44.872;20.658;2023-02-18T08:45:14;358.50;1715.20
56436;DHT22;42335;44.872;20.658;2023-02-18T08:47:39;358.50;1715.20
56436;DHT22;42335;44.872;20.658;2023-02-18T08:50:05;358.40;1715.20
56436;DHT22;42335;44.872;20.658;2023-02-18T08:52:31;333.60;1715.20
56436;DHT22;42335;44.872;20.658;2023-02-18T08:54:56;333.50;1740.80
56436;DHT22;42335;44.872;20.658;2023-02-18T08:57:22;333.40;1740.80
56436;DHT22;42335;44.872;20.658;2023-02-18T08:59:49;333.40;1766.40
56436;DHT22;42335;44.872;20.658;2023-02-18T09:02:14;333.40;1766.40
56436;DHT22;42335;44.872;20.658;2023-02-18T09:04:41;333.40;1792.00
56436;DHT22;42335;44.872;20.658;2023-02-18T09:07:07;333.40;1792.00
56436;DHT22;42335;44.872;20.658;2023-02-18T09:09:33;333.40;1792.00
56436;DHT22;42335;44.872;20.658;2023-02-18T09:11:58;333.50;1792.00
56436;DHT22;42335;44.872;20.658;2023-02-18T09:14:26;333.50;1792.00
56436;DHT22;42335;44.872;20.658;2023-02-18T09:16:51;333.60;1792.00
56436;DHT22;42335;44.872;20.658;2023-02-18T09:19:17;333.70;1792.00
56436;DHT22;42335;44.872;20.658;2023-02-18T09:21:43;358.50;1766.40
56436;DHT22;42335;44.872;20.658;2023-02-18T09:24:09;358.80;1740.80
56436;DHT22;42335;44.872;20.658;2023-02-18T09:26:35;359.20;1740.80
56436;DHT22;42335;44.872;20.658;2023-02-18T09:29:02;384.30;1689.60
56436;DHT22;42335;44.872;20.658;2023-02-18T09:31:28;409.90;1612.80
56436;DHT22;42335;44.872;20.658;2023-02-18T09:34:03;460.80;1484.80
56436;DHT22;42335;44.872;20.658;2023-02-18T09:36:31;487.20;1356.80
56436;DHT22;42335;44.872;20.658;2023-02-18T09:43:51;614.60;1100.80
56436;DHT22;42335;44.872;20.658;2023-02-18T09:46:23;691.30;947.20
56436;DHT22;42335;44.872;20.658;2023-02-18T09:48:50;692.10;896.00
56436;DHT22;42335;44.872;20.658;2023-02-18T09:51:17;742.90;844.80
56436;DHT22;42335;44.872;20.658;2023-02-18T09:53:44;768.60;793.60
56436;DHT22;42335;44.872;20.658;2023-02-18T09:56:25;794.40;768.00
56436;DHT22;42335;44.872;20.658;2023-02-18T09:58:52;819.20;742.40
56436;DHT22;42335;44.872;20.658;2023-02-18T10:01:39;845.30;716.80
56436;DHT22;42335;44.872;20.658;2023-02-18T10:07:33;922.00;614.40
56436;DHT22;42335;44.872;20.658;2023-02-18T10:10:10;870.50;691.20
56436;DHT22;42335;44.872;20.658;2023-02-18T10:12:40;819.30;742.40
56436;DHT22;42335;44.872;20.658;2023-02-18T10:17:33;742.90;793.60
56436;DHT22;42335;44.872;20.658;2023-02-18T10:20:03;717.10;793.60
56436;DHT22;42335;44.872;20.658;2023-02-18T10:22:29;691.90;793.60
56436;DHT22;42335;44.872;20.658;2023-02-18T10:24:57;691.50;819.20
56436;DHT22;42335;44.872;20.658;2023-02-18T10:27:26;666.50;870.40
56436;DHT22;42335;44.872;20.658;2023-02-18T10:30:02;665.60;896.00
56436;DHT22;42335;44.872;20.658;2023-02-18T10:32:37;640.30;921.60
56436;DHT22;42335;44.872;20.658;2023-02-18T10:35:18;614.50;972.80
56436;DHT22;42335;44.872;20.658;2023-02-18T10:43:28;538.50;1100.80
56436;DHT22;42335;44.872;20.658;2023-02-18T10:48:54;512.70;1152.00
56436;DHT22;42335;44.872;20.658;2023-02-18T10:51:28;512.50;1177.60
56436;DHT22;42335;44.872;20.658;2023-02-18T10:53:55;512.40;1177.60
56436;DHT22;42335;44.872;20.658;2023-02-18T13:49:34;538.20;1228.80
56436;DHT22;42335;44.872;20.658;2023-02-18T13:54:41;538.00;1228.80
56436;DHT22;42335;44.872;20.658;2023-02-18T13:57:19;537.90;1228.80
56436;DHT22;42335;44.872;20.658;2023-02-18T13:59:48;537.80;1228.80
56436;DHT22;42335;44.872;20.658;2023-02-18T14:12:39;512.50;1254.40
56436;DHT22;42335;44.872;20.658;2023-02-18T15:11:41;461.10;1433.60
56436;DHT22;42335;44.872;20.658;2023-02-18T15:14:33;461.00;1433.60
56436;DHT22;42335;44.872;20.658;2023-02-18T15:16:58;436.00;1408.00
56436;DHT22;42335;44.872;20.658;2023-02-18T15:19:27;435.90;1433.60
56436;DHT22;42335;44.872;20.658;2023-02-18T15:21:55;435.80;1433.60
56436;DHT22;42335;44.872;20.658;2023-02-18T15:24:34;435.70;1459.20
56436;DHT22;42335;44.872;20.658;2023-02-18T15:29:33;435.70;1459.20
56436;DHT22;42335;44.872;20.658;2023-02-18T15:31:59;435.40;1484.80
56436;DHT22;42335;44.872;20.658;2023-02-18T15:36:55;410.50;1510.40
56436;DHT22;42335;44.872;20.658;2023-02-18T15:39:22;410.40;1510.40
56436;DHT22;42335;44.872;20.658;2023-02-18T15:56:41;410.20;1536.00
56436;DHT22;42335;44.872;20.658;2023-02-18T16:06:51;409.70;1612.80
56436;DHT22;42335;44.872;20.658;2023-02-18T17:01:41;358.50;1843.20
56436;DHT22;42335;44.872;20.658;2023-02-18T17:06:37;333.70;1868.80
56436;DHT22;42335;44.872;20.658;2023-02-18T17:09:14;333.20;1894.40
56436;DHT22;42335;44.872;20.658;2023-02-18T17:11:43;333.20;1920.00
56436;DHT22;42335;44.872;20.658;2023-02-18T17:14:14;333.00;1945.60
56436;DHT22;42335;44.872;20.658;2023-02-18T17:16:43;332.90;1971.20
56436;DHT22;42335;44.872;20.658;2023-02-18T17:19:08;332.80;2022.40
56436;DHT22;42335;44.872;20.658;2023-02-18T17:21:34;332.80;2022.40
56436;DHT22;42335;44.872;20.658;2023-02-18T17:24:00;308.10;2022.40
56436;DHT22;42335;44.872;20.658;2023-02-18T17:26:28;308.10;2048.00
56436;DHT22;42335;44.872;20.658;2023-02-18T17:28:55;308.10;2048.00
56436;DHT22;42335;44.872;20.658;2023-02-18T17:31:24;308.10;2073.60
56436;DHT22;42335;44.872;20.658;2023-02-18T17:33:55;308.00;2099.20
56436;DHT22;42335;44.872;20.658;2023-02-18T17:36:21;308.00;2150.40
56436;DHT22;42335;44.872;20.658;2023-02-18T17:43:42;332.80;2252.80
56436;DHT22;42335;44.872;20.658;2023-02-18T17:46:13;308.10;2278.40
56436;DHT22;42335;44.872;20.658;2023-02-18T17:48:41;307.80;2304.00
56436;DHT22;42335;44.872;20.658;2023-02-18T17:51:23;307.70;2304.00
56436;DHT22;42335;44.872;20.658;2023-02-18T17:53:49;307.60;2304.00
56436;DHT22;42335;44.872;20.658;2023-02-18T17:56:14;307.60;2304.00
56436;DHT22;42335;44.872;20.658;2023-02-18T17:58:40;307.40;2304.00
56436;DHT22;42335;44.872;20.658;2023-02-18T18:01:08;307.40;2304.00
56436;DHT22;42335;44.872;20.658;2023-02-18T18:03:34;307.40;2304.00
56436;DHT22;42335;44.872;20.658;2023-02-18T18:05:59;307.30;2304.00
56436;DHT22;42335;44.872;20.658;2023-02-18T18:08:26;307.30;2304.00
56436;DHT22;42335;44.872;20.658;2023-02-18T18:10:54;307.30;2304.00
56436;DHT22;42335;44.872;20.658;2023-02-18T18:13:30;307.30;2304.00
56436;DHT22;42335;44.872;20.658;2023-02-18T18:15:59;307.20;2304.00
56436;DHT22;42335;44.872;20.658;2023-02-18T18:18:26;282.30;2278.40
56436;DHT22;42335;44.872;20.658;2023-02-18T18:20:55;282.40;2278.40
56436;DHT22;42335;44.872;20.658;2023-02-18T18:23:21;282.30;2278.40
56436;DHT22;42335;44.872;20.658;2023-02-18T18:25:53;282.30;2278.40
56436;DHT22;42335;44.872;20.658;2023-02-18T18:28:20;282.30;2278.40
56436;DHT22;42335;44.872;20.658;2023-02-18T18:30:48;282.20;2278.40
56436;DHT22;42335;44.872;20.658;2023-02-18T18:33:23;282.30;2278.40
56436;DHT22;42335;44.872;20.658;2023-02-18T18:35:50;282.20;2278.40
56436;DHT22;42335;44.872;20.658;2023-02-18T18:38:17;282.20;2278.40
56436;DHT22;42335;44.872;20.658;2023-02-18T18:40:44;282.10;2278.40
56436;DHT22;42335;44.872;20.658;2023-02-18T18:43:21;282.10;2278.40
56436;DHT22;42335;44.872;20.658;2023-02-18T18:45:48;282.00;2278.40
56436;DHT22;42335;44.872;20.658;2023-02-18T18:48:14;281.90;2278.40
56436;DHT22;42335;44.872;20.658;2023-02-18T18:50:40;281.90;2278.40
56436;DHT22;42335;44.872;20.658;2023-02-18T18:53:24;282.00;2278.40
56436;DHT22;42335;44.872;20.658;2023-02-18T18:55:56;282.00;2278.40
56436;DHT22;42335;44.872;20.658;2023-02-18T18:58:22;281.90;2278.40
56436;DHT22;42335;44.872;20.658;2023-02-18T19:00:56;281.90;2278.40
56436;DHT22;42335;44.872;20.658;2023-02-18T19:03:23;281.90;2278.40
56436;DHT22;42335;44.872;20.658;2023-02-18T19:05:50;281.90;2278.40
56436;DHT22;42335;44.872;20.658;2023-02-18T19:08:18;281.90;2278.40
56436;DHT22;42335;44.872;20.658;2023-02-18T19:10:55;281.80;2278.40
56436;DHT22;42335;44.872;20.658;2023-02-18T19:13:23;281.70;2278.40
56436;DHT22;42335;44.872;20.658;2023-02-18T19:15:52;281.70;2278.40
56436;DHT22;42335;44.872;20.658;2023-02-18T19:18:23;281.60;2278.40
56436;DHT22;42335;44.872;20.658;2023-02-18T19:20:49;281.60;2278.40
56436;DHT22;42335;44.872;20.658;2023-02-18T19:23:14;281.70;2278.40
56436;DHT22;42335;44.872;20.658;2023-02-18T19:25:41;281.60;2278.40
56436;DHT22;42335;44.872;20.658;2023-02-18T19:28:07;281.60;2278.40
56436;DHT22;42335;44.872;20.658;2023-02-18T19:30:38;281.60;2278.40
56436;DHT22;42335;44.872;20.658;2023-02-18T19:33:05;256.90;2252.80
56436;DHT22;42335;44.872;20.658;2023-02-18T19:35:32;256.90;2252.80
56436;DHT22;42335;44.872;20.658;2023-02-18T19:37:58;256.90;2252.80
56436;DHT22;42335;44.872;20.658;2023-02-18T19:40:26;256.90;2252.80
56436;DHT22;42335;44.872;20.658;2023-02-18T19:42:52;281.60;2278.40
56436;DHT22;42335;44.872;20.658;2023-02-18T19:45:18;281.60;2278.40
56436;DHT22;42335;44.872;20.658;2023-02-18T19:47:45;281.60;2278.40
56436;DHT22;42335;44.872;20.658;2023-02-18T19:50:13;281.60;2278.40
56436;DHT22;42335;44.872;20.658;2023-02-18T19:52:40;256.90;2252.80
56436;DHT22;42335;44.872;20.658;2023-02-18T19:55:07;256.90;2252.80
56436;DHT22;42335;44.872;20.658;2023-02-18T19:57:33;256.90;2252.80
56436;DHT22;42335;44.872;20.658;2023-02-18T20:00:04;256.80;2252.80
56436;DHT22;42335;44.872;20.658;2023-02-18T20:02:34;256.70;2252.80
56436;DHT22;42335;44.872;20.658;2023-02-18T20:05:01;256.60;2252.80
56436;DHT22;42335;44.872;20.658;2023-02-18T20:07:28;256.60;2252.80
56436;DHT22;42335;44.872;20.658;2023-02-18T20:09:54;256.60;2252.80
56436;DHT22;42335;44.872;20.658;2023-02-18T20:12:20;256.50;2252.80
56436;DHT22;42335;44.872;20.658;2023-02-18T20:14:48;256.50;2252.80
56436;DHT22;42335;44.872;20.658;2023-02-18T20:17:14;256.50;2252.80
56436;DHT22;42335;44.872;20.658;2023-02-18T20:19:40;256.50;2252.80
56436;DHT22;42335;44.872;20.658;2023-02-18T20:22:05;256.40;2252.80
56436;DHT22;42335;44.872;20.658;2023-02-18T20:24:32;256.30;2252.80
56436;DHT22;42335;44.872;20.658;2023-02-18T20:26:59;256.30;2252.80
56436;DHT22;42335;44.872;20.658;2023-02-18T20:29:25;256.20;2252.80
56436;DHT22;42335;44.872;20.658;2023-02-18T20:31:52;256.20;2252.80
56436;DHT22;42335;44.872;20.658;2023-02-18T20:34:18;256.10;2252.80
56436;DHT22;42335;44.872;20.658;2023-02-18T20:36:44;256.20;2252.80
56436;DHT22;42335;44.872;20.658;2023-02-18T20:39:13;256.20;2252.80
56436;DHT22;42335;44.872;20.658;2023-02-18T20:41:40;256.20;2252.80
56436;DHT22;42335;44.872;20.658;2023-02-18T20:44:06;256.10;2252.80
56436;DHT22;42335;44.872;20.658;2023-02-18T20:46:33;256.20;2252.80
56436;DHT22;42335;44.872;20.658;2023-02-18T20:49:05;256.10;2252.80
56436;DHT22;42335;44.872;20.658;2023-02-18T20:51:33;256.10;2252.80
56436;DHT22;42335;44.872;20.658;2023-02-18T20:54:02;256.10;2252.80
56436;DHT22;42335;44.872;20.658;2023-02-18T20:56:28;256.10;2252.80
56436;DHT22;42335;44.872;20.658;2023-02-18T20:58:53;256.00;2252.80
56436;DHT22;42335;44.872;20.658;2023-02-18T21:01:19;256.00;2252.80
56436;DHT22;42335;44.872;20.658;2023-02-18T21:03:49;256.10;2252.80